createdAt,value
2023-02-27T00:01:22.083Z,99846.09
2023-02-27T00:04:25.276Z,99849.37
2023-02-27T00:07:28.929Z,99854.88
2023-02-27T00:10:32.103Z,99857.38
2023-02-27T00:13:35.738Z,99851.53
2023-02-27T00:16:39.177Z,99846.13
2023-02-27T00:19:42.096Z,99847.50
2023-02-27T00:22:45.816Z,99848.97
2023-02-27T00:25:48.782Z,99844.22
2023-02-27T00:28:52.250Z,99853.03
2023-02-27T00:31:56.413Z,99856.41
2023-02-27T00:35:01.807Z,99856.97
2023-02-27T00:38:05.059Z,99860.44
2023-02-27T00:41:09.405Z,99861.31
2023-02-27T00:44:12.861Z,99865.94
2023-02-27T00:47:16.141Z,99868.22
2023-02-27T00:50:19.281Z,99870.87
2023-02-27T00:53:23.043Z,99875.50
2023-02-27T00:56:26.056Z,99876.09
2023-02-27T00:59:29.218Z,99882.34
2023-02-27T01:02:32.223Z,99885.88
2023-02-27T01:05:35.743Z,99892.88
2023-02-27T01:08:38.758Z,99895.53
2023-02-27T01:11:42.014Z,99897.69
2023-02-27T01:14:45.153Z,99904.41
2023-02-27T01:17:49.924Z,99904.59
2023-02-27T01:20:55.538Z,99914.94
2023-02-27T01:23:58.847Z,99919.88
2023-02-27T01:27:03.004Z,99913.06
2023-02-27T01:30:07.141Z,99919.88
2023-02-27T01:33:10.446Z,99916.91
2023-02-27T01:36:16.272Z,99924.31
2023-02-27T01:39:19.171Z,99915.59
2023-02-27T01:42:25.184Z,99923.31
2023-02-27T01:45:34.730Z,99925.59
2023-02-27T01:48:39.543Z,99920.66
2023-02-27T01:51:48.797Z,99919.38
2023-02-27T01:54:52.895Z,99926.69
2023-02-27T01:57:56.457Z,99938.41
2023-02-27T02:01:00.201Z,99924.50
2023-02-27T02:04:14.377Z,99928.56
2023-02-27T02:07:20.047Z,99937.53
2023-02-27T02:10:23.286Z,99937.53
2023-02-27T02:13:27.793Z,99936.75
2023-02-27T02:16:54.767Z,99942.94
2023-02-27T02:20:22.564Z,99945.81
2023-02-27T02:23:47.229Z,99956.19
2023-02-27T02:27:27.008Z,99953.78
2023-02-27T02:30:38.833Z,99961.72
2023-02-27T02:34:00.457Z,99952.16
2023-02-27T02:37:31.215Z,99958.25
2023-02-27T02:40:48.976Z,99962.22
2023-02-27T02:44:16.612Z,99968.31
2023-02-27T02:47:44.575Z,99965.38
2023-02-27T02:51:18.924Z,99971.00
2023-02-27T02:54:43.662Z,99977.41
2023-02-27T02:58:02.198Z,99984.09
2023-02-27T03:01:10.256Z,99984.31
2023-02-27T03:04:18.883Z,99983.44
2023-02-27T03:07:45.905Z,99981.38
2023-02-27T03:11:03.990Z,99975.94
2023-02-27T03:14:25.081Z,99981.25
2023-02-27T03:17:39.368Z,99985.22
2023-02-27T03:20:45.960Z,99994.88
2023-02-27T03:23:50.457Z,99996.47
2023-02-27T03:26:57.300Z,99992.03
2023-02-27T03:30:08.976Z,100000.37
2023-02-27T03:33:13.873Z,100008.06
2023-02-27T03:36:17.752Z,100004.69
2023-02-27T03:39:25.452Z,99999.97
2023-02-27T03:42:49.639Z,100007.50
2023-02-27T03:46:09.727Z,100017.16
2023-02-27T03:49:12.900Z,100015.94
2023-02-27T03:52:16.167Z,100014.72
2023-02-27T03:55:25.892Z,100014.81
2023-02-27T03:58:30.231Z,100005.78
2023-02-27T04:01:34.158Z,100012.84
2023-02-27T04:04:37.494Z,100004.84
2023-02-27T04:08:13.167Z,100006.00
2023-02-27T04:11:28.661Z,100013.00
2023-02-27T04:15:06.729Z,100016.81
2023-02-27T04:18:22.440Z,100016.22
2023-02-27T04:21:45.308Z,100024.22
2023-02-27T04:25:03.182Z,100033.47
2023-02-27T04:28:12.271Z,100039.34
2023-02-27T04:31:42.787Z,100036.13
2023-02-27T04:34:49.744Z,100037.56
2023-02-27T04:38:28.348Z,100043.87
2023-02-27T04:41:57.713Z,100050.72
2023-02-27T04:45:06.940Z,100047.56
2023-02-27T04:48:23.647Z,100046.34
2023-02-27T04:51:32.431Z,100052.59
2023-02-27T04:54:46.106Z,100060.87
2023-02-27T04:57:58.917Z,100063.81
2023-02-27T05:01:06.372Z,100074.34
2023-02-27T05:04:12.656Z,100080.72
2023-02-27T05:07:19.369Z,100077.34
2023-02-27T05:10:33.601Z,100085.25
2023-02-27T05:13:42.672Z,100088.28
2023-02-27T05:16:51.099Z,100081.91
2023-02-27T05:19:54.158Z,100081.47
2023-02-27T05:23:01.360Z,100081.88
2023-02-27T05:26:31.965Z,100089.69
2023-02-27T05:30:01.635Z,100089.75
2023-02-27T05:33:18.886Z,100097.16
2023-02-27T05:36:32.891Z,100105.13
2023-02-27T05:39:37.476Z,100112.25
2023-02-27T05:42:45.514Z,100114.63
2023-02-27T05:45:51.205Z,100121.69
2023-02-27T05:49:03.494Z,100126.66
2023-02-27T05:52:10.738Z,100132.97
2023-02-27T05:55:26.757Z,100139.91
2023-02-27T05:58:36.636Z,100140.84
2023-02-27T06:01:39.938Z,100138.91
2023-02-27T06:04:43.234Z,100147.12
2023-02-27T06:07:46.180Z,100156.03
2023-02-27T06:10:52.128Z,100153.00
2023-02-27T06:13:55.263Z,100165.63
2023-02-27T06:16:58.540Z,100163.44
2023-02-27T06:20:01.454Z,100171.06
2023-02-27T06:23:06.760Z,100165.72
2023-02-27T06:26:14.321Z,100173.78
2023-02-27T06:29:17.676Z,100176.69
2023-02-27T06:32:25.278Z,100174.94
2023-02-27T06:35:29.595Z,100181.06
2023-02-27T06:38:34.152Z,100190.06
2023-02-27T06:41:37.399Z,100186.03
2023-02-27T06:44:40.741Z,100184.53
2023-02-27T06:47:44.702Z,100187.41
2023-02-27T06:50:54.392Z,100200.59
2023-02-27T06:53:58.359Z,100213.37
2023-02-27T06:57:01.584Z,100208.22
2023-02-27T07:00:07.277Z,100215.31
2023-02-27T07:03:10.273Z,100217.91
2023-02-27T07:06:14.040Z,100224.97
2023-02-27T07:09:17.017Z,100229.94
2023-02-27T07:12:20.266Z,100233.78
2023-02-27T07:15:23.261Z,100233.72
2023-02-27T07:18:26.496Z,100236.44
2023-02-27T07:21:29.493Z,100235.47
2023-02-27T07:24:32.771Z,100240.59
2023-02-27T07:27:35.776Z,100243.47
2023-02-27T07:30:39.290Z,100243.81
2023-02-27T07:33:44.585Z,100249.00
2023-02-27T07:36:50.575Z,100252.66
2023-02-27T07:39:53.532Z,100254.25
2023-02-27T07:42:56.968Z,100263.25
2023-02-27T07:46:00.009Z,100263.56
2023-02-27T07:49:04.972Z,100267.63
2023-02-27T07:52:08.494Z,100278.94
2023-02-27T07:55:13.587Z,100268.47
2023-02-27T07:58:17.739Z,100274.31
2023-02-27T08:01:21.092Z,100273.03
2023-02-27T08:04:24.445Z,100279.25
2023-02-27T08:07:27.515Z,100284.91
2023-02-27T08:10:30.842Z,100275.59
2023-02-27T08:14:00.025Z,100282.31
2023-02-27T08:16:58.143Z,100290.56
2023-02-27T08:20:01.946Z,100291.00
2023-02-27T08:23:05.227Z,100291.97
2023-02-27T08:26:08.523Z,100290.22
2023-02-27T08:29:11.698Z,100291.28
2023-02-27T08:32:14.917Z,100301.09
2023-02-27T08:35:18.253Z,100297.38
2023-02-27T08:38:21.332Z,100300.78
2023-02-27T08:41:24.827Z,100304.91
2023-02-27T08:44:27.976Z,100301.91
2023-02-27T08:47:31.759Z,100315.31
2023-02-27T08:50:34.677Z,100319.84
2023-02-27T08:53:37.998Z,100325.84
2023-02-27T08:56:40.982Z,100333.44
2023-02-27T08:59:44.353Z,100328.25
2023-02-27T09:02:47.413Z,100326.50
2023-02-27T09:05:51.440Z,100334.47
2023-02-27T09:08:54.477Z,100340.88
2023-02-27T09:11:57.797Z,100348.44
2023-02-27T09:15:01.076Z,100354.47
2023-02-27T09:18:07.056Z,100360.88
2023-02-27T09:21:10.172Z,100357.66
2023-02-27T09:24:20.467Z,100355.44
2023-02-27T09:27:24.118Z,100364.69
2023-02-27T09:30:27.929Z,100362.75
2023-02-27T09:33:31.577Z,100368.87
2023-02-27T09:36:35.143Z,100369.37
2023-02-27T09:39:38.112Z,100369.69
2023-02-27T09:42:45.629Z,100371.16
2023-02-27T09:45:54.504Z,100374.19
2023-02-27T09:48:59.621Z,100384.59
2023-02-27T09:52:02.887Z,100372.59
2023-02-27T09:55:13.484Z,100376.00
2023-02-27T09:58:41.414Z,100371.69
2023-02-27T10:02:07.162Z,100370.47
2023-02-27T10:05:16.552Z,100368.53
2023-02-27T10:08:28.271Z,100369.41
2023-02-27T10:11:51.663Z,100372.37
2023-02-27T10:15:03.168Z,100373.38
2023-02-27T10:18:25.583Z,100376.97
2023-02-27T10:21:37.513Z,100366.47
2023-02-27T10:24:45.348Z,100376.91
2023-02-27T10:27:51.305Z,100371.81
2023-02-27T10:30:59.640Z,100373.25
2023-02-27T10:34:02.751Z,100377.97
2023-02-27T10:37:07.995Z,100373.44
2023-02-27T10:40:14.469Z,100386.09
2023-02-27T10:43:19.907Z,100380.41
2023-02-27T10:46:28.723Z,100381.47
2023-02-27T10:49:33.622Z,100370.75
2023-02-27T10:52:49.162Z,100374.88
2023-02-27T10:56:02.191Z,100381.91
2023-02-27T10:59:18.192Z,100381.94
2023-02-27T11:02:27.093Z,100378.78
2023-02-27T11:05:32.872Z,100385.75
2023-02-27T11:08:36.365Z,100377.38
2023-02-27T11:11:40.000Z,100379.44
2023-02-27T11:14:58.371Z,100380.38
2023-02-27T11:18:29.447Z,100378.34
2023-02-27T11:21:32.688Z,100388.38
2023-02-27T11:24:35.791Z,100381.47
2023-02-27T11:27:39.418Z,100384.88
2023-02-27T11:30:44.192Z,100390.09
2023-02-27T11:33:54.931Z,100386.25
2023-02-27T11:37:04.078Z,100384.09
2023-02-27T11:40:10.740Z,100383.97
2023-02-27T11:43:21.455Z,100400.13
2023-02-27T11:46:46.369Z,100384.62
2023-02-27T11:50:00.843Z,100390.59
2023-02-27T11:53:22.855Z,100385.34
2023-02-27T11:56:50.890Z,100381.16
2023-02-27T12:00:06.701Z,100384.00
2023-02-27T12:03:28.983Z,100395.84
2023-02-27T12:06:57.696Z,100388.19
2023-02-27T12:10:03.386Z,100391.34
2023-02-27T12:13:17.997Z,100389.75
2023-02-27T12:16:47.149Z,100385.56
2023-02-27T12:19:53.685Z,100395.38
2023-02-27T12:22:56.733Z,100389.22
2023-02-27T12:26:24.042Z,100392.53
2023-02-27T12:29:35.701Z,100395.53
2023-02-27T12:32:55.126Z,100395.47
2023-02-27T12:36:00.578Z,100393.47
2023-02-27T12:39:05.196Z,100393.56
2023-02-27T12:42:26.956Z,100387.25
2023-02-27T12:45:46.366Z,100402.03
2023-02-27T12:49:16.051Z,100392.13
2023-02-27T12:52:44.326Z,100390.53
2023-02-27T12:56:12.322Z,100402.53
2023-02-27T13:00:01.001Z,100390.13
2023-02-27T13:03:17.889Z,100405.06
2023-02-27T13:06:39.914Z,100396.09
2023-02-27T13:09:52.186Z,100402.28
2023-02-27T13:13:00.879Z,100404.22
2023-02-27T13:16:09.897Z,100402.97
2023-02-27T13:19:16.137Z,100411.16
2023-02-27T13:22:42.257Z,100409.50
2023-02-27T13:25:51.092Z,100405.38
2023-02-27T13:28:54.602Z,100402.41
2023-02-27T13:32:04.904Z,100396.41
2023-02-27T13:35:17.966Z,100398.47
2023-02-27T13:38:50.426Z,100397.28
2023-02-27T13:41:53.423Z,100407.03
2023-02-27T13:45:06.402Z,100400.88
2023-02-27T13:48:46.357Z,100401.03
2023-02-27T13:51:51.229Z,100395.44
2023-02-27T13:54:57.264Z,100408.38
2023-02-27T13:58:04.425Z,100405.66
2023-02-27T14:01:17.220Z,100416.81
2023-02-27T14:04:21.276Z,100408.06
2023-02-27T14:07:30.489Z,100406.59
2023-02-27T14:10:37.220Z,100399.50
2023-02-27T14:13:50.094Z,100408.44
2023-02-27T14:16:53.813Z,100403.63
2023-02-27T14:19:59.296Z,100405.63
2023-02-27T14:23:27.763Z,100412.88
2023-02-27T14:26:30.838Z,100402.34
2023-02-27T14:29:35.389Z,100395.03
2023-02-27T14:32:38.537Z,100380.22
2023-02-27T14:35:46.325Z,100402.59
2023-02-27T14:38:50.795Z,100389.91
2023-02-27T14:42:20.340Z,100400.94
2023-02-27T14:45:25.226Z,100404.94
2023-02-27T14:48:29.124Z,100399.53
2023-02-27T14:51:34.978Z,100397.47
2023-02-27T14:54:38.314Z,100415.22
2023-02-27T14:57:51.960Z,100407.84
2023-02-27T15:01:11.607Z,100414.62
2023-02-27T15:04:18.575Z,100417.06
2023-02-27T15:07:24.904Z,100423.22
2023-02-27T15:10:31.237Z,100423.94
2023-02-27T15:13:39.642Z,100425.34
2023-02-27T15:16:43.091Z,100427.50
2023-02-27T15:19:58.359Z,100430.69
2023-02-27T15:23:04.414Z,100436.41
2023-02-27T15:26:10.577Z,100445.53
2023-02-27T15:29:22.284Z,100448.38
2023-02-27T15:32:27.984Z,100446.94
2023-02-27T15:35:36.013Z,100448.53
2023-02-27T15:38:39.291Z,100464.28
2023-02-27T15:41:45.128Z,100467.25
2023-02-27T15:44:48.728Z,100468.84
2023-02-27T15:47:51.876Z,100474.09
2023-02-27T15:50:59.526Z,100471.56
2023-02-27T15:54:04.519Z,100478.97
2023-02-27T15:57:08.636Z,100481.19
2023-02-27T16:00:15.458Z,100486.09
2023-02-27T16:03:22.650Z,100489.03
2023-02-27T16:06:32.539Z,100491.63
2023-02-27T16:09:37.779Z,100490.69
2023-02-27T16:12:43.292Z,100507.72
2023-02-27T16:15:59.309Z,100504.94
2023-02-27T16:19:27.085Z,100506.81
2023-02-27T16:22:30.766Z,100512.72
2023-02-27T16:25:33.920Z,100512.78
2023-02-27T16:29:07.330Z,100519.94
2023-02-27T16:32:27.949Z,100523.16
2023-02-27T16:35:35.484Z,100535.47
2023-02-27T16:38:39.314Z,100529.75
2023-02-27T16:41:44.325Z,100543.16
2023-02-27T16:44:47.575Z,100545.63
2023-02-27T16:48:00.230Z,100549.50
2023-02-27T16:51:04.287Z,100556.03
2023-02-27T16:54:11.225Z,100551.31
2023-02-27T16:57:14.493Z,100557.25
2023-02-27T17:00:19.835Z,100563.09
2023-02-27T17:03:24.716Z,100572.41
2023-02-27T17:06:30.581Z,100577.97
2023-02-27T17:09:35.746Z,100586.72
2023-02-27T17:12:44.211Z,100592.03
2023-02-27T17:15:47.777Z,100594.50
2023-02-27T17:18:53.091Z,100598.88
2023-02-27T17:21:57.720Z,100596.59
2023-02-27T17:25:01.506Z,100599.28
2023-02-27T17:28:05.897Z,100604.81
2023-02-27T17:31:11.059Z,100601.12
2023-02-27T17:34:15.560Z,100597.84
2023-02-27T17:37:19.323Z,100610.81
2023-02-27T17:40:23.231Z,100610.31
2023-02-27T17:43:27.658Z,100606.84
2023-02-27T17:46:32.211Z,100617.34
2023-02-27T17:49:40.679Z,100624.44
2023-02-27T17:52:46.100Z,100627.22
2023-02-27T17:55:53.789Z,100630.03
2023-02-27T17:58:59.908Z,100634.59
2023-02-27T18:02:07.438Z,100638.50
2023-02-27T18:05:12.742Z,100640.69
2023-02-27T18:08:16.641Z,100641.06
2023-02-27T18:11:22.562Z,100638.66
2023-02-27T18:14:26.206Z,100642.78
2023-02-27T18:17:30.602Z,100644.53
2023-02-27T18:20:34.195Z,100642.91
2023-02-27T18:23:40.873Z,100647.53
2023-02-27T18:26:45.610Z,100647.53
2023-02-27T18:29:50.682Z,100651.88
2023-02-27T18:32:59.375Z,100647.13
2023-02-27T18:36:04.205Z,100648.28
2023-02-27T18:39:09.202Z,100664.34
2023-02-27T18:42:13.667Z,100659.28
2023-02-27T18:45:17.028Z,100665.00
2023-02-27T18:48:21.479Z,100670.69
2023-02-27T18:51:26.581Z,100675.72
2023-02-27T18:54:31.212Z,100675.56
2023-02-27T18:57:35.781Z,100680.13
2023-02-27T19:00:42.085Z,100674.25
2023-02-27T19:03:47.508Z,100680.97
2023-02-27T19:06:52.376Z,100675.13
2023-02-27T19:09:56.858Z,100677.78
2023-02-27T19:13:02.992Z,100683.44
2023-02-27T19:16:08.668Z,100687.22
2023-02-27T19:19:13.857Z,100694.37
2023-02-27T19:22:18.671Z,100693.47
2023-02-27T19:25:25.325Z,100695.09
2023-02-27T19:28:29.538Z,100701.69
2023-02-27T19:31:34.364Z,100698.59
2023-02-27T19:34:38.763Z,100701.78
2023-02-27T19:37:44.068Z,100709.78
2023-02-27T19:40:47.452Z,100714.84
2023-02-27T19:43:53.356Z,100719.38
2023-02-27T19:46:57.970Z,100719.91
2023-02-27T19:50:02.764Z,100729.84
2023-02-27T19:53:07.250Z,100736.03
2023-02-27T19:56:16.695Z,100741.53
2023-02-27T19:59:25.295Z,100757.03
2023-02-27T20:02:30.573Z,100762.22
2023-02-27T20:05:38.863Z,100754.28
2023-02-27T20:08:44.665Z,100755.13
2023-02-27T20:11:56.896Z,100754.94
2023-02-27T20:15:07.676Z,100752.13
2023-02-27T20:18:13.217Z,100760.09
2023-02-27T20:21:21.841Z,100754.50
2023-02-27T20:24:27.937Z,100757.75
2023-02-27T20:27:32.740Z,100773.28
2023-02-27T20:30:40.997Z,100781.56
2023-02-27T20:33:46.549Z,100777.84
2023-02-27T20:36:53.037Z,100778.97
2023-02-27T20:39:58.750Z,100785.84
2023-02-27T20:43:07.101Z,100781.84
2023-02-27T20:46:22.977Z,100770.84
2023-02-27T20:49:27.647Z,100787.38
2023-02-27T20:52:31.164Z,100795.06
2023-02-27T20:55:35.159Z,100802.19
2023-02-27T20:58:39.491Z,100802.28
2023-02-27T21:01:51.722Z,100801.19
2023-02-27T21:04:57.771Z,100821.22
2023-02-27T21:08:01.912Z,100810.28
2023-02-27T21:11:20.797Z,100818.31
2023-02-27T21:14:24.140Z,100821.03
2023-02-27T21:17:27.475Z,100823.19
2023-02-27T21:20:31.312Z,100827.53
2023-02-27T21:23:40.272Z,100830.19
2023-02-27T21:26:44.301Z,100831.81
2023-02-27T21:29:48.862Z,100826.50
2023-02-27T21:32:52.455Z,100831.31
2023-02-27T21:35:55.586Z,100836.16
2023-02-27T21:39:01.334Z,100843.59
2023-02-27T21:42:04.753Z,100835.31
2023-02-27T21:45:08.580Z,100831.31
2023-02-27T21:48:11.973Z,100832.16
2023-02-27T21:51:15.283Z,100837.47
2023-02-27T21:54:19.229Z,100842.81
2023-02-27T21:57:23.131Z,100850.13
2023-02-27T22:00:28.714Z,100834.69
2023-02-27T22:03:34.546Z,100838.13
2023-02-27T22:06:37.510Z,100841.06
2023-02-27T22:09:42.100Z,100838.69
2023-02-27T22:12:45.079Z,100843.97
2023-02-27T22:15:48.859Z,100833.53
2023-02-27T22:18:52.048Z,100828.66
2023-02-27T22:21:55.446Z,100829.22
2023-02-27T22:24:58.510Z,100836.75
2023-02-27T22:28:02.002Z,100826.06
2023-02-27T22:31:12.560Z,100831.44
2023-02-27T22:34:18.710Z,100833.28
2023-02-27T22:37:23.240Z,100833.53
2023-02-27T22:40:29.622Z,100830.63
2023-02-27T22:43:32.820Z,100834.56
2023-02-27T22:46:38.586Z,100826.78
2023-02-27T22:49:41.737Z,100827.06
2023-02-27T22:52:44.903Z,100835.09
2023-02-27T22:55:55.498Z,100843.41
2023-02-27T22:58:59.323Z,100844.44
2023-02-27T23:02:02.380Z,100842.66
2023-02-27T23:05:05.946Z,100838.41
2023-02-27T23:08:08.863Z,100847.47
